sensor_id;sensor_type;location;lat;lon;timestamp;P1;durP1;ratioP1;P2;durP2;ratioP2
16037;SDS011;8123;50.906;6.172;2023-12-20T00:00:55;25.60;;;14.37;;
16037;SDS011;8123;50.906;6.172;2023-12-20T00:03:21;28.80;;;15.17;;
16037;SDS011;8123;50.906;6.172;2023-12-20T00:05:47;26.30;;;13.90;;
16037;SDS011;8123;50.906;6.172;2023-12-20T00:08:13;31.40;;;15.80;;
16037;SDS011;8123;50.906;6.172;2023-12-20T00:10:38;34.87;;;16.73;;
16037;SDS011;8123;50.906;6.172;2023-12-20T00:13:04;38.80;;;15.77;;
16037;SDS011;8123;50.906;6.172;2023-12-20T00:15:30;32.10;;;16.87;;
16037;SDS011;8123;50.906;6.172;2023-12-20T00:17:55;39.60;;;19.20;;
16037;SDS011;8123;50.906;6.172;2023-12-20T00:20:21;37.93;;;19.17;;
16037;SDS011;8123;50.906;6.172;2023-12-20T00:22:46;38.90;;;20.30;;
16037;SDS011;8123;50.906;6.172;2023-12-20T00:25:12;37.97;;;18.80;;
16037;SDS011;8123;50.906;6.172;2023-12-20T00:27:38;39.27;;;18.77;;
16037;SDS011;8123;50.906;6.172;2023-12-20T00:30:03;42.13;;;20.00;;
16037;SDS011;8123;50.906;6.172;2023-12-20T00:32:29;40.33;;;19.60;;
16037;SDS011;8123;50.906;6.172;2023-12-20T00:34:55;41.93;;;19.77;;
16037;SDS011;8123;50.906;6.172;2023-12-20T00:37:21;46.53;;;19.90;;
16037;SDS011;8123;50.906;6.172;2023-12-20T00:39:46;39.67;;;18.57;;
16037;SDS011;8123;50.906;6.172;2023-12-20T00:42:12;41.33;;;20.17;;
16037;SDS011;8123;50.906;6.172;2023-12-20T00:44:38;41.33;;;20.13;;
16037;SDS011;8123;50.906;6.172;2023-12-20T00:47:04;47.73;;;15.00;;
16037;SDS011;8123;50.906;6.172;2023-12-20T00:49:29;27.10;;;13.40;;
16037;SDS011;8123;50.906;6.172;2023-12-20T00:51:55;26.63;;;12.17;;
16037;SDS011;8123;50.906;6.172;2023-12-20T00:54:20;28.90;;;11.30;;
16037;SDS011;8123;50.906;6.172;2023-12-20T00:56:46;17.50;;;8.67;;
16037;SDS011;8123;50.906;6.172;2023-12-20T00:59:12;26.50;;;8.57;;
16037;SDS011;8123;50.906;6.172;2023-12-20T01:01:37;23.80;;;7.03;;
16037;SDS011;8123;50.906;6.172;2023-12-20T01:04:03;11.83;;;6.40;;
16037;SDS011;8123;50.906;6.172;2023-12-20T01:06:29;13.00;;;5.80;;
16037;SDS011;8123;50.906;6.172;2023-12-20T01:08:54;13.53;;;5.67;;
16037;SDS011;8123;50.906;6.172;2023-12-20T01:11:20;10.53;;;5.30;;
16037;SDS011;8123;50.906;6.172;2023-12-20T01:13:45;22.83;;;6.40;;
16037;SDS011;8123;50.906;6.172;2023-12-20T01:16:11;16.03;;;5.23;;
16037;SDS011;8123;50.906;6.172;2023-12-20T01:18:37;16.03;;;4.63;;
16037;SDS011;8123;50.906;6.172;2023-12-20T01:21:04;13.20;;;4.50;;
16037;SDS011;8123;50.906;6.172;2023-12-20T01:23:30;12.90;;;4.63;;
16037;SDS011;8123;50.906;6.172;2023-12-20T01:25:56;24.67;;;4.17;;
16037;SDS011;8123;50.906;6.172;2023-12-20T01:28:21;16.43;;;4.00;;
16037;SDS011;8123;50.906;6.172;2023-12-20T01:30:47;14.50;;;4.17;;
16037;SDS011;8123;50.906;6.172;2023-12-20T01:33:13;15.70;;;3.00;;
16037;SDS011;8123;50.906;6.172;2023-12-20T01:35:38;19.27;;;3.10;;
16037;SDS011;8123;50.906;6.172;2023-12-20T01:38:04;20.87;;;3.33;;
16037;SDS011;8123;50.906;6.172;2023-12-20T01:40:30;7.33;;;2.73;;
16037;SDS011;8123;50.906;6.172;2023-12-20T01:42:59;11.77;;;2.87;;
16037;SDS011;8123;50.906;6.172;2023-12-20T01:45:25;18.97;;;2.90;;
16037;SDS011;8123;50.906;6.172;2023-12-20T01:47:51;9.83;;;3.50;;
16037;SDS011;8123;50.906;6.172;2023-12-20T01:50:17;11.43;;;2.80;;
16037;SDS011;8123;50.906;6.172;2023-12-20T01:52:43;8.60;;;2.33;;
16037;SDS011;8123;50.906;6.172;2023-12-20T01:55:10;11.63;;;2.63;;
16037;SDS011;8123;50.906;6.172;2023-12-20T01:57:41;9.37;;;3.43;;
16037;SDS011;8123;50.906;6.172;2023-12-20T02:00:07;20.77;;;3.23;;
16037;SDS011;8123;50.906;6.172;2023-12-20T02:02:34;21.57;;;3.00;;
16037;SDS011;8123;50.906;6.172;2023-12-20T02:05:04;18.00;;;3.33;;
16037;SDS011;8123;50.906;6.172;2023-12-20T02:07:30;15.33;;;2.47;;
16037;SDS011;8123;50.906;6.172;2023-12-20T02:09:56;18.70;;;4.00;;
16037;SDS011;8123;50.906;6.172;2023-12-20T02:12:22;31.13;;;3.47;;
16037;SDS011;8123;50.906;6.172;2023-12-20T02:14:48;9.07;;;3.90;;
16037;SDS011;8123;50.906;6.172;2023-12-20T02:17:14;15.43;;;3.77;;
16037;SDS011;8123;50.906;6.172;2023-12-20T02:19:41;20.57;;;4.10;;
16037;SDS011;8123;50.906;6.172;2023-12-20T02:22:09;24.10;;;4.00;;
16037;SDS011;8123;50.906;6.172;2023-12-20T02:24:36;15.07;;;3.67;;
16037;SDS011;8123;50.906;6.172;2023-12-20T02:27:01;18.33;;;3.90;;
16037;SDS011;8123;50.906;6.172;2023-12-20T02:29:28;17.97;;;3.87;;
16037;SDS011;8123;50.906;6.172;2023-12-20T02:31:53;13.87;;;3.30;;
16037;SDS011;8123;50.906;6.172;2023-12-20T02:34:19;14.80;;;3.67;;
16037;SDS011;8123;50.906;6.172;2023-12-20T02:36:45;16.23;;;3.37;;
16037;SDS011;8123;50.906;6.172;2023-12-20T02:39:12;15.63;;;3.07;;
16037;SDS011;8123;50.906;6.172;2023-12-20T02:41:38;17.50;;;3.17;;
16037;SDS011;8123;50.906;6.172;2023-12-20T02:44:03;9.67;;;3.17;;
16037;SDS011;8123;50.906;6.172;2023-12-20T02:46:29;14.23;;;3.37;;
16037;SDS011;8123;50.906;6.172;2023-12-20T02:48:54;13.97;;;4.37;;
16037;SDS011;8123;50.906;6.172;2023-12-20T02:51:20;17.30;;;3.80;;
16037;SDS011;8123;50.906;6.172;2023-12-20T02:53:46;17.23;;;3.27;;
16037;SDS011;8123;50.906;6.172;2023-12-20T02:56:11;11.27;;;3.40;;
16037;SDS011;8123;50.906;6.172;2023-12-20T02:58:37;15.87;;;4.23;;
16037;SDS011;8123;50.906;6.172;2023-12-20T03:01:03;7.23;;;2.80;;
16037;SDS011;8123;50.906;6.172;2023-12-20T03:03:29;18.03;;;4.30;;
16037;SDS011;8123;50.906;6.172;2023-12-20T03:05:55;12.70;;;3.50;;
16037;SDS011;8123;50.906;6.172;2023-12-20T03:08:20;19.53;;;4.53;;
16037;SDS011;8123;50.906;6.172;2023-12-20T03:10:46;18.10;;;4.40;;
16037;SDS011;8123;50.906;6.172;2023-12-20T03:13:12;17.17;;;4.43;;
16037;SDS011;8123;50.906;6.172;2023-12-20T03:15:37;15.43;;;5.30;;
16037;SDS011;8123;50.906;6.172;2023-12-20T03:18:03;28.27;;;5.17;;
16037;SDS011;8123;50.906;6.172;2023-12-20T03:20:29;21.33;;;4.63;;
16037;SDS011;8123;50.906;6.172;2023-12-20T03:22:58;21.10;;;4.40;;
16037;SDS011;8123;50.906;6.172;2023-12-20T03:25:23;17.17;;;5.10;;
16037;SDS011;8123;50.906;6.172;2023-12-20T03:27:49;14.90;;;4.43;;
16037;SDS011;8123;50.906;6.172;2023-12-20T03:30:14;18.33;;;4.87;;
16037;SDS011;8123;50.906;6.172;2023-12-20T03:32:40;27.43;;;4.47;;
16037;SDS011;8123;50.906;6.172;2023-12-20T03:35:06;23.50;;;4.80;;
16037;SDS011;8123;50.906;6.172;2023-12-20T03:37:31;17.13;;;5.10;;
16037;SDS011;8123;50.906;6.172;2023-12-20T03:39:57;19.53;;;5.40;;
16037;SDS011;8123;50.906;6.172;2023-12-20T03:42:22;24.53;;;5.57;;
16037;SDS011;8123;50.906;6.172;2023-12-20T03:44:48;21.30;;;5.80;;
16037;SDS011;8123;50.906;6.172;2023-12-20T03:47:14;16.20;;;5.10;;
16037;SDS011;8123;50.906;6.172;2023-12-20T03:49:39;17.03;;;5.53;;
16037;SDS011;8123;50.906;6.172;2023-12-20T03:52:05;25.10;;;5.30;;
16037;SDS011;8123;50.906;6.172;2023-12-20T03:54:30;18.43;;;5.00;;
16037;SDS011;8123;50.906;6.172;2023-12-20T03:56:56;14.33;;;5.57;;
16037;SDS011;8123;50.906;6.172;2023-12-20T03:59:21;27.33;;;8.40;;
16037;SDS011;8123;50.906;6.172;2023-12-20T04:01:47;17.87;;;5.47;;
16037;SDS011;8123;50.906;6.172;2023-12-20T04:04:13;15.70;;;5.70;;
16037;SDS011;8123;50.906;6.172;2023-12-20T04:06:38;32.77;;;5.57;;
16037;SDS011;8123;50.906;6.172;2023-12-20T04:09:04;18.57;;;5.53;;
16037;SDS011;8123;50.906;6.172;2023-12-20T04:11:30;20.53;;;5.17;;
16037;SDS011;8123;50.906;6.172;2023-12-20T04:13:56;24.53;;;6.43;;
16037;SDS011;8123;50.906;6.172;2023-12-20T04:16:21;13.20;;;5.70;;
16037;SDS011;8123;50.906;6.172;2023-12-20T04:18:47;21.83;;;7.13;;
16037;SDS011;8123;50.906;6.172;2023-12-20T04:21:12;29.77;;;5.77;;
16037;SDS011;8123;50.906;6.172;2023-12-20T04:23:38;14.23;;;4.90;;
16037;SDS011;8123;50.906;6.172;2023-12-20T04:26:04;19.87;;;5.03;;
16037;SDS011;8123;50.906;6.172;2023-12-20T04:28:29;23.60;;;5.70;;
16037;SDS011;8123;50.906;6.172;2023-12-20T04:30:55;10.20;;;4.37;;
16037;SDS011;8123;50.906;6.172;2023-12-20T04:33:21;35.90;;;4.17;;
16037;SDS011;8123;50.906;6.172;2023-12-20T04:35:47;21.70;;;5.20;;
16037;SDS011;8123;50.906;6.172;2023-12-20T04:38:13;13.13;;;3.53;;
16037;SDS011;8123;50.906;6.172;2023-12-20T04:40:39;22.53;;;3.90;;
16037;SDS011;8123;50.906;6.172;2023-12-20T04:43:06;29.30;;;4.03;;
16037;SDS011;8123;50.906;6.172;2023-12-20T04:45:32;28.70;;;4.90;;
16037;SDS011;8123;50.906;6.172;2023-12-20T04:47:57;16.97;;;3.93;;
16037;SDS011;8123;50.906;6.172;2023-12-20T04:50:23;14.87;;;4.17;;
16037;SDS011;8123;50.906;6.172;2023-12-20T04:52:48;28.17;;;4.63;;
16037;SDS011;8123;50.906;6.172;2023-12-20T04:55:14;17.37;;;4.57;;
16037;SDS011;8123;50.906;6.172;2023-12-20T04:57:40;11.93;;;3.87;;
16037;SDS011;8123;50.906;6.172;2023-12-20T05:00:05;23.93;;;4.13;;
16037;SDS011;8123;50.906;6.172;2023-12-20T05:02:33;14.50;;;3.83;;
16037;SDS011;8123;50.906;6.172;2023-12-20T05:05:00;16.90;;;5.07;;
16037;SDS011;8123;50.906;6.172;2023-12-20T05:07:25;24.13;;;3.63;;
16037;SDS011;8123;50.906;6.172;2023-12-20T05:09:51;13.73;;;3.33;;
16037;SDS011;8123;50.906;6.172;2023-12-20T05:12:16;41.60;;;5.20;;
16037;SDS011;8123;50.906;6.172;2023-12-20T05:14:42;19.80;;;4.83;;
16037;SDS011;8123;50.906;6.172;2023-12-20T05:17:08;17.97;;;3.80;;
16037;SDS011;8123;50.906;6.172;2023-12-20T05:19:33;11.00;;;4.03;;
16037;SDS011;8123;50.906;6.172;2023-12-20T05:22:02;33.20;;;6.30;;
16037;SDS011;8123;50.906;6.172;2023-12-20T05:24:28;12.53;;;4.27;;
16037;SDS011;8123;50.906;6.172;2023-12-20T05:26:54;17.27;;;7.30;;
16037;SDS011;8123;50.906;6.172;2023-12-20T05:29:19;47.07;;;5.43;;
16037;SDS011;8123;50.906;6.172;2023-12-20T05:31:45;27.40;;;4.77;;
16037;SDS011;8123;50.906;6.172;2023-12-20T05:34:11;19.77;;;4.37;;
16037;SDS011;8123;50.906;6.172;2023-12-20T05:36:37;13.27;;;3.50;;
16037;SDS011;8123;50.906;6.172;2023-12-20T05:39:04;18.23;;;5.10;;
16037;SDS011;8123;50.906;6.172;2023-12-20T05:41:31;19.53;;;4.87;;
16037;SDS011;8123;50.906;6.172;2023-12-20T05:43:56;17.70;;;4.23;;
16037;SDS011;8123;50.906;6.172;2023-12-20T05:46:23;15.70;;;3.90;;
16037;SDS011;8123;50.906;6.172;2023-12-20T05:48:49;9.87;;;4.20;;
16037;SDS011;8123;50.906;6.172;2023-12-20T05:51:15;16.53;;;4.20;;
16037;SDS011;8123;50.906;6.172;2023-12-20T05:53:40;21.00;;;4.60;;
16037;SDS011;8123;50.906;6.172;2023-12-20T05:56:06;13.97;;;3.10;;
16037;SDS011;8123;50.906;6.172;2023-12-20T05:58:32;22.40;;;5.20;;
16037;SDS011;8123;50.906;6.172;2023-12-20T06:00:58;18.73;;;4.33;;
16037;SDS011;8123;50.906;6.172;2023-12-20T06:03:24;20.33;;;3.97;;
16037;SDS011;8123;50.906;6.172;2023-12-20T06:05:50;19.87;;;4.10;;
16037;SDS011;8123;50.906;6.172;2023-12-20T06:08:15;16.27;;;4.07;;
16037;SDS011;8123;50.906;6.172;2023-12-20T06:10:41;16.50;;;5.40;;
16037;SDS011;8123;50.906;6.172;2023-12-20T06:13:06;13.43;;;4.23;;
16037;SDS011;8123;50.906;6.172;2023-12-20T06:15:32;17.50;;;4.07;;
16037;SDS011;8123;50.906;6.172;2023-12-20T06:17:58;15.27;;;4.70;;
16037;SDS011;8123;50.906;6.172;2023-12-20T06:20:24;15.40;;;4.83;;
16037;SDS011;8123;50.906;6.172;2023-12-20T06:22:50;22.07;;;5.93;;
16037;SDS011;8123;50.906;6.172;2023-12-20T06:25:16;13.73;;;4.40;;
16037;SDS011;8123;50.906;6.172;2023-12-20T06:27:41;13.00;;;4.93;;
16037;SDS011;8123;50.906;6.172;2023-12-20T06:30:07;23.37;;;4.73;;
16037;SDS011;8123;50.906;6.172;2023-12-20T06:32:36;19.23;;;4.37;;
16037;SDS011;8123;50.906;6.172;2023-12-20T06:35:03;16.10;;;4.40;;
16037;SDS011;8123;50.906;6.172;2023-12-20T06:37:30;20.33;;;4.20;;
16037;SDS011;8123;50.906;6.172;2023-12-20T06:39:55;29.53;;;4.93;;
16037;SDS011;8123;50.906;6.172;2023-12-20T06:42:22;23.83;;;4.83;;
16037;SDS011;8123;50.906;6.172;2023-12-20T06:44:47;22.63;;;4.70;;
16037;SDS011;8123;50.906;6.172;2023-12-20T06:47:13;12.37;;;4.77;;
16037;SDS011;8123;50.906;6.172;2023-12-20T06:49:39;16.03;;;4.27;;
16037;SDS011;8123;50.906;6.172;2023-12-20T06:52:05;33.50;;;5.10;;
16037;SDS011;8123;50.906;6.172;2023-12-20T06:54:31;20.47;;;5.10;;
16037;SDS011;8123;50.906;6.172;2023-12-20T06:56:59;17.90;;;4.33;;
16037;SDS011;8123;50.906;6.172;2023-12-20T06:59:24;14.00;;;5.17;;
16037;SDS011;8123;50.906;6.172;2023-12-20T07:01:51;18.73;;;5.83;;
16037;SDS011;8123;50.906;6.172;2023-12-20T07:04:16;25.50;;;6.50;;
16037;SDS011;8123;50.906;6.172;2023-12-20T07:06:45;36.37;;;5.23;;
16037;SDS011;8123;50.906;6.172;2023-12-20T07:09:11;30.30;;;5.53;;
16037;SDS011;8123;50.906;6.172;2023-12-20T07:11:38;14.13;;;4.83;;
16037;SDS011;8123;50.906;6.172;2023-12-20T07:14:03;19.83;;;5.37;;
16037;SDS011;8123;50.906;6.172;2023-12-20T07:16:29;17.50;;;6.40;;
16037;SDS011;8123;50.906;6.172;2023-12-20T07:18:55;29.60;;;6.10;;
16037;SDS011;8123;50.906;6.172;2023-12-20T07:21:21;31.50;;;5.80;;
16037;SDS011;8123;50.906;6.172;2023-12-20T07:23:47;15.63;;;6.10;;
16037;SDS011;8123;50.906;6.172;2023-12-20T07:26:13;14.33;;;5.03;;
16037;SDS011;8123;50.906;6.172;2023-12-20T07:28:39;26.27;;;6.30;;
16037;SDS011;8123;50.906;6.172;2023-12-20T07:31:05;14.70;;;4.17;;
16037;SDS011;8123;50.906;6.172;2023-12-20T07:33:31;12.90;;;5.43;;
16037;SDS011;8123;50.906;6.172;2023-12-20T07:35:56;11.73;;;5.70;;
16037;SDS011;8123;50.906;6.172;2023-12-20T07:38:22;24.60;;;5.70;;
16037;SDS011;8123;50.906;6.172;2023-12-20T07:40:49;24.43;;;5.60;;
16037;SDS011;8123;50.906;6.172;2023-12-20T07:43:14;20.23;;;6.60;;
16037;SDS011;8123;50.906;6.172;2023-12-20T07:45:40;30.48;;;5.43;;
16037;SDS011;8123;50.906;6.172;2023-12-20T07:48:06;12.50;;;4.60;;
16037;SDS011;8123;50.906;6.172;2023-12-20T07:50:32;18.90;;;5.87;;
16037;SDS011;8123;50.906;6.172;2023-12-20T07:52:57;16.63;;;4.90;;
16037;SDS011;8123;50.906;6.172;2023-12-20T07:55:25;20.63;;;5.77;;
16037;SDS011;8123;50.906;6.172;2023-12-20T07:57:51;24.47;;;5.53;;
16037;SDS011;8123;50.906;6.172;2023-12-20T08:00:17;23.27;;;5.27;;
16037;SDS011;8123;50.906;6.172;2023-12-20T08:02:43;14.00;;;5.50;;
16037;SDS011;8123;50.906;6.172;2023-12-20T08:05:09;21.53;;;3.87;;
16037;SDS011;8123;50.906;6.172;2023-12-20T08:07:35;27.23;;;5.40;;
16037;SDS011;8123;50.906;6.172;2023-12-20T08:10:01;23.73;;;5.30;;
16037;SDS011;8123;50.906;6.172;2023-12-20T08:12:27;23.53;;;4.40;;
16037;SDS011;8123;50.906;6.172;2023-12-20T08:14:53;26.60;;;8.50;;
16037;SDS011;8123;50.906;6.172;2023-12-20T08:17:19;18.90;;;5.10;;
16037;SDS011;8123;50.906;6.172;2023-12-20T08:19:45;13.57;;;4.63;;
16037;SDS011;8123;50.906;6.172;2023-12-20T08:22:11;13.70;;;4.67;;
16037;SDS011;8123;50.906;6.172;2023-12-20T08:24:36;11.03;;;3.93;;
16037;SDS011;8123;50.906;6.172;2023-12-20T08:27:03;17.47;;;5.20;;
16037;SDS011;8123;50.906;6.172;2023-12-20T08:29:29;34.17;;;12.13;;
16037;SDS011;8123;50.906;6.172;2023-12-20T08:31:55;19.13;;;4.80;;
16037;SDS011;8123;50.906;6.172;2023-12-20T08:34:21;30.60;;;5.30;;
16037;SDS011;8123;50.906;6.172;2023-12-20T08:36:47;18.47;;;5.80;;
16037;SDS011;8123;50.906;6.172;2023-12-20T08:39:13;17.57;;;4.83;;
16037;SDS011;8123;50.906;6.172;2023-12-20T08:41:38;11.80;;;4.60;;
16037;SDS011;8123;50.906;6.172;2023-12-20T08:44:04;28.03;;;4.83;;
16037;SDS011;8123;50.906;6.172;2023-12-20T08:46:29;26.70;;;4.93;;
16037;SDS011;8123;50.906;6.172;2023-12-20T08:48:55;18.93;;;5.37;;
16037;SDS011;8123;50.906;6.172;2023-12-20T08:51:21;29.30;;;5.33;;
16037;SDS011;8123;50.906;6.172;2023-12-20T08:53:48;22.63;;;4.37;;
16037;SDS011;8123;50.906;6.172;2023-12-20T08:56:14;25.37;;;5.00;;
16037;SDS011;8123;50.906;6.172;2023-12-20T08:58:40;23.10;;;5.60;;
16037;SDS011;8123;50.906;6.172;2023-12-20T09:01:07;14.20;;;4.10;;
16037;SDS011;8123;50.906;6.172;2023-12-20T09:03:32;18.73;;;4.57;;
16037;SDS011;8123;50.906;6.172;2023-12-20T09:05:58;21.40;;;6.10;;
16037;SDS011;8123;50.906;6.172;2023-12-20T09:08:24;25.27;;;3.90;;
16037;SDS011;8123;50.906;6.172;2023-12-20T09:10:49;20.63;;;5.03;;
16037;SDS011;8123;50.906;6.172;2023-12-20T09:13:15;12.50;;;4.57;;
16037;SDS011;8123;50.906;6.172;2023-12-20T09:15:41;19.53;;;4.23;;
16037;SDS011;8123;50.906;6.172;2023-12-20T09:18:06;13.20;;;3.47;;
16037;SDS011;8123;50.906;6.172;2023-12-20T09:20:32;17.97;;;4.70;;
16037;SDS011;8123;50.906;6.172;2023-12-20T09:22:58;12.67;;;4.83;;
16037;SDS011;8123;50.906;6.172;2023-12-20T09:25:24;8.50;;;4.20;;
16037;SDS011;8123;50.906;6.172;2023-12-20T09:27:51;9.20;;;3.80;;
16037;SDS011;8123;50.906;6.172;2023-12-20T09:30:17;17.10;;;4.23;;
16037;SDS011;8123;50.906;6.172;2023-12-20T09:32:43;15.30;;;4.80;;
16037;SDS011;8123;50.906;6.172;2023-12-20T09:35:10;21.17;;;5.50;;
16037;SDS011;8123;50.906;6.172;2023-12-20T09:37:35;17.40;;;4.13;;
16037;SDS011;8123;50.906;6.172;2023-12-20T09:40:01;22.67;;;7.07;;
16037;SDS011;8123;50.906;6.172;2023-12-20T09:45:12;17.37;;;3.67;;
16037;SDS011;8123;50.906;6.172;2023-12-20T09:47:39;25.33;;;4.67;;
16037;SDS011;8123;50.906;6.172;2023-12-20T09:50:06;17.37;;;4.40;;
16037;SDS011;8123;50.906;6.172;2023-12-20T09:52:33;21.33;;;4.87;;
16037;SDS011;8123;50.906;6.172;2023-12-20T09:55:01;24.30;;;4.90;;
16037;SDS011;8123;50.906;6.172;2023-12-20T09:57:30;23.20;;;4.17;;
16037;SDS011;8123;50.906;6.172;2023-12-20T09:59:57;21.87;;;5.77;;
16037;SDS011;8123;50.906;6.172;2023-12-20T10:02:23;19.60;;;4.50;;
16037;SDS011;8123;50.906;6.172;2023-12-20T10:04:52;20.23;;;5.97;;
16037;SDS011;8123;50.906;6.172;2023-12-20T10:07:19;17.93;;;3.67;;
16037;SDS011;8123;50.906;6.172;2023-12-20T10:09:45;9.80;;;3.20;;
16037;SDS011;8123;50.906;6.172;2023-12-20T10:12:12;26.03;;;5.30;;
16037;SDS011;8123;50.906;6.172;2023-12-20T10:14:38;10.80;;;4.13;;
16037;SDS011;8123;50.906;6.172;2023-12-20T10:17:04;9.10;;;3.17;;
16037;SDS011;8123;50.906;6.172;2023-12-20T10:19:31;14.70;;;4.00;;
16037;SDS011;8123;50.906;6.172;2023-12-20T10:21:58;20.53;;;3.90;;
16037;SDS011;8123;50.906;6.172;2023-12-20T10:24:24;18.03;;;4.10;;
16037;SDS011;8123;50.906;6.172;2023-12-20T10:27:00;29.63;;;4.50;;
16037;SDS011;8123;50.906;6.172;2023-12-20T10:29:36;22.37;;;4.43;;
16037;SDS011;8123;50.906;6.172;2023-12-20T10:32:21;13.80;;;3.80;;
16037;SDS011;8123;50.906;6.172;2023-12-20T10:34:51;18.03;;;3.80;;
16037;SDS011;8123;50.906;6.172;2023-12-20T10:37:17;14.40;;;4.13;;
16037;SDS011;8123;50.906;6.172;2023-12-20T10:39:43;16.17;;;3.57;;
16037;SDS011;8123;50.906;6.172;2023-12-20T10:42:12;17.00;;;4.43;;
16037;SDS011;8123;50.906;6.172;2023-12-20T10:44:39;12.43;;;3.07;;
16037;SDS011;8123;50.906;6.172;2023-12-20T10:47:05;22.20;;;3.77;;
16037;SDS011;8123;50.906;6.172;2023-12-20T10:49:31;12.80;;;3.00;;
16037;SDS011;8123;50.906;6.172;2023-12-20T10:52:01;15.33;;;3.17;;
16037;SDS011;8123;50.906;6.172;2023-12-20T10:54:29;10.00;;;3.47;;
16037;SDS011;8123;50.906;6.172;2023-12-20T10:56:55;12.53;;;3.07;;
16037;SDS011;8123;50.906;6.172;2023-12-20T10:59:24;14.23;;;4.10;;
16037;SDS011;8123;50.906;6.172;2023-12-20T11:01:52;17.70;;;3.60;;
16037;SDS011;8123;50.906;6.172;2023-12-20T11:04:28;13.57;;;3.67;;
16037;SDS011;8123;50.906;6.172;2023-12-20T11:10:00;17.50;;;3.80;;
16037;SDS011;8123;50.906;6.172;2023-12-20T11:15:24;15.13;;;4.00;;
16037;SDS011;8123;50.906;6.172;2023-12-20T11:17:55;13.70;;;4.43;;
16037;SDS011;8123;50.906;6.172;2023-12-20T11:20:34;10.80;;;3.30;;
16037;SDS011;8123;50.906;6.172;2023-12-20T11:23:04;20.50;;;5.00;;
16037;SDS011;8123;50.906;6.172;2023-12-20T11:25:30;8.57;;;3.83;;
16037;SDS011;8123;50.906;6.172;2023-12-20T11:28:22;19.20;;;4.20;;
16037;SDS011;8123;50.906;6.172;2023-12-20T11:33:16;14.83;;;4.53;;
16037;SDS011;8123;50.906;6.172;2023-12-20T11:35:46;13.47;;;3.57;;
16037;SDS011;8123;50.906;6.172;2023-12-20T11:38:12;19.60;;;4.67;;
16037;SDS011;8123;50.906;6.172;2023-12-20T11:40:39;14.63;;;3.53;;
16037;SDS011;8123;50.906;6.172;2023-12-20T11:43:09;9.70;;;3.67;;
16037;SDS011;8123;50.906;6.172;2023-12-20T11:45:35;16.77;;;4.17;;
16037;SDS011;8123;50.906;6.172;2023-12-20T11:48:03;11.07;;;3.30;;
16037;SDS011;8123;50.906;6.172;2023-12-20T11:50:31;14.10;;;3.43;;
16037;SDS011;8123;50.906;6.172;2023-12-20T11:52:56;20.67;;;4.10;;
16037;SDS011;8123;50.906;6.172;2023-12-20T11:55:22;18.83;;;5.17;;
16037;SDS011;8123;50.906;6.172;2023-12-20T11:57:49;27.53;;;5.00;;
16037;SDS011;8123;50.906;6.172;2023-12-20T12:00:15;15.27;;;3.67;;
16037;SDS011;8123;50.906;6.172;2023-12-20T12:02:42;13.13;;;3.93;;
16037;SDS011;8123;50.906;6.172;2023-12-20T12:05:08;13.73;;;4.07;;
16037;SDS011;8123;50.906;6.172;2023-12-20T12:07:34;22.13;;;4.27;;
16037;SDS011;8123;50.906;6.172;2023-12-20T12:10:00;15.53;;;3.77;;
16037;SDS011;8123;50.906;6.172;2023-12-20T12:12:26;15.40;;;3.97;;
16037;SDS011;8123;50.906;6.172;2023-12-20T12:14:52;20.27;;;5.23;;
16037;SDS011;8123;50.906;6.172;2023-12-20T12:17:19;13.20;;;3.83;;
16037;SDS011;8123;50.906;6.172;2023-12-20T12:19:45;12.33;;;4.10;;
16037;SDS011;8123;50.906;6.172;2023-12-20T12:22:14;16.67;;;5.00;;
16037;SDS011;8123;50.906;6.172;2023-12-20T12:24:42;21.03;;;5.83;;
16037;SDS011;8123;50.906;6.172;2023-12-20T12:27:09;17.00;;;4.43;;
16037;SDS011;8123;50.906;6.172;2023-12-20T12:29:35;15.93;;;4.20;;
16037;SDS011;8123;50.906;6.172;2023-12-20T12:32:01;17.93;;;4.53;;
16037;SDS011;8123;50.906;6.172;2023-12-20T12:34:31;18.53;;;5.10;;
16037;SDS011;8123;50.906;6.172;2023-12-20T12:36:56;15.20;;;4.40;;
16037;SDS011;8123;50.906;6.172;2023-12-20T12:39:23;16.93;;;3.97;;
16037;SDS011;8123;50.906;6.172;2023-12-20T12:41:52;12.53;;;3.60;;
16037;SDS011;8123;50.906;6.172;2023-12-20T12:44:18;18.70;;;4.70;;
16037;SDS011;8123;50.906;6.172;2023-12-20T12:46:47;10.53;;;3.30;;
16037;SDS011;8123;50.906;6.172;2023-12-20T12:49:15;22.17;;;5.07;;
16037;SDS011;8123;50.906;6.172;2023-12-20T12:51:41;17.37;;;4.17;;
16037;SDS011;8123;50.906;6.172;2023-12-20T12:54:07;23.97;;;5.43;;
16037;SDS011;8123;50.906;6.172;2023-12-20T12:56:34;26.27;;;4.07;;
16037;SDS011;8123;50.906;6.172;2023-12-20T12:59:00;14.10;;;3.43;;
16037;SDS011;8123;50.906;6.172;2023-12-20T13:01:26;9.93;;;4.07;;
16037;SDS011;8123;50.906;6.172;2023-12-20T13:03:52;18.67;;;3.87;;
16037;SDS011;8123;50.906;6.172;2023-12-20T13:06:18;14.63;;;3.50;;
16037;SDS011;8123;50.906;6.172;2023-12-20T13:08:44;10.90;;;4.37;;
16037;SDS011;8123;50.906;6.172;2023-12-20T13:11:10;21.43;;;4.60;;
16037;SDS011;8123;50.906;6.172;2023-12-20T13:13:36;21.30;;;6.00;;
16037;SDS011;8123;50.906;6.172;2023-12-20T13:16:01;15.63;;;5.63;;
16037;SDS011;8123;50.906;6.172;2023-12-20T13:18:27;12.13;;;4.10;;
16037;SDS011;8123;50.906;6.172;2023-12-20T13:20:53;16.63;;;4.07;;
16037;SDS011;8123;50.906;6.172;2023-12-20T13:23:19;23.60;;;4.80;;
16037;SDS011;8123;50.906;6.172;2023-12-20T13:25:44;15.20;;;3.90;;
16037;SDS011;8123;50.906;6.172;2023-12-20T13:28:13;21.17;;;3.90;;
16037;SDS011;8123;50.906;6.172;2023-12-20T13:30:38;14.20;;;4.73;;
16037;SDS011;8123;50.906;6.172;2023-12-20T13:33:05;15.27;;;4.27;;
16037;SDS011;8123;50.906;6.172;2023-12-20T13:35:31;22.83;;;4.03;;
16037;SDS011;8123;50.906;6.172;2023-12-20T13:37:57;24.97;;;5.40;;
16037;SDS011;8123;50.906;6.172;2023-12-20T13:40:23;13.90;;;4.50;;
16037;SDS011;8123;50.906;6.172;2023-12-20T13:42:49;11.80;;;4.00;;
16037;SDS011;8123;50.906;6.172;2023-12-20T13:45:14;21.53;;;4.40;;
16037;SDS011;8123;50.906;6.172;2023-12-20T13:47:40;21.03;;;4.57;;
16037;SDS011;8123;50.906;6.172;2023-12-20T13:50:05;11.10;;;3.90;;
16037;SDS011;8123;50.906;6.172;2023-12-20T13:52:31;26.70;;;4.37;;
16037;SDS011;8123;50.906;6.172;2023-12-20T13:54:57;16.00;;;5.03;;
16037;SDS011;8123;50.906;6.172;2023-12-20T13:57:22;17.77;;;4.30;;
16037;SDS011;8123;50.906;6.172;2023-12-20T13:59:48;23.80;;;4.63;;
16037;SDS011;8123;50.906;6.172;2023-12-20T14:02:14;20.43;;;4.50;;
16037;SDS011;8123;50.906;6.172;2023-12-20T14:04:41;26.77;;;5.83;;
16037;SDS011;8123;50.906;6.172;2023-12-20T14:07:06;21.73;;;4.10;;
16037;SDS011;8123;50.906;6.172;2023-12-20T14:09:32;12.40;;;3.73;;
16037;SDS011;8123;50.906;6.172;2023-12-20T14:11:59;17.83;;;4.03;;
16037;SDS011;8123;50.906;6.172;2023-12-20T14:14:24;28.40;;;6.10;;
16037;SDS011;8123;50.906;6.172;2023-12-20T14:16:50;15.83;;;4.10;;
16037;SDS011;8123;50.906;6.172;2023-12-20T14:19:16;26.03;;;6.00;;
16037;SDS011;8123;50.906;6.172;2023-12-20T14:21:42;14.83;;;4.83;;
16037;SDS011;8123;50.906;6.172;2023-12-20T14:24:10;15.00;;;4.47;;
16037;SDS011;8123;50.906;6.172;2023-12-20T14:26:39;17.97;;;3.63;;
16037;SDS011;8123;50.906;6.172;2023-12-20T14:29:08;13.43;;;4.40;;
16037;SDS011;8123;50.906;6.172;2023-12-20T14:31:34;13.93;;;3.37;;
16037;SDS011;8123;50.906;6.172;2023-12-20T14:34:00;13.43;;;4.00;;
16037;SDS011;8123;50.906;6.172;2023-12-20T14:36:28;13.60;;;4.10;;
16037;SDS011;8123;50.906;6.172;2023-12-20T14:38:56;20.40;;;4.70;;
16037;SDS011;8123;50.906;6.172;2023-12-20T14:41:21;21.70;;;5.33;;
16037;SDS011;8123;50.906;6.172;2023-12-20T14:43:49;10.77;;;4.50;;
16037;SDS011;8123;50.906;6.172;2023-12-20T14:46:16;11.50;;;4.80;;
16037;SDS011;8123;50.906;6.172;2023-12-20T14:48:42;23.43;;;4.20;;
16037;SDS011;8123;50.906;6.172;2023-12-20T14:51:07;15.40;;;4.13;;
16037;SDS011;8123;50.906;6.172;2023-12-20T14:53:34;19.73;;;5.00;;